Time;durP1;ratioP1;P1;durP2;ratioP2;P2;SDS_P1;SDS_P2;PMS_P1;PMS_P2;Temp;Humidity;BMP_temperature;BMP_pressure;BME280_temperature;BME280_humidity;BME280_pressure;Samples;Min_cycle;Max_cycle;Signal;HPM_P1;HPM_P2
2022/11/04 00:01:57;;;;;;;21.80;12.25;;;;;;;9.25;73.30;97996.50;1607087;88;25478;-64
2022/11/04 00:04:26;;;;;;;26.93;13.83;;;;;;;9.25;73.41;97992.95;1607016;88;25706;-64
2022/11/04 00:06:54;;;;;;;21.48;11.45;;;;;;;9.25;73.37;97986.12;1607183;89;25524;-64
2022/11/04 00:09:25;;;;;;;21.68;12.45;;;;;;;9.25;73.40;97984.75;1607092;89;27446;-64
2022/11/04 00:14:36;;;;;;;23.25;12.35;;;;;;;9.30;73.17;97987.34;1606850;89;25489;-63
2022/11/04 00:17:20;;;;;;;22.58;12.70;;;;;;;9.33;73.24;97979.05;1606771;89;25798;-65
2022/11/04 00:33:54;;;;;;;18.02;11.40;;;;;;;9.50;72.76;97942.68;1607029;89;25656;-63
2022/11/04 00:36:22;;;;;;;21.05;11.85;;;;;;;9.51;72.64;97945.09;1615486;86;28216;-63
2022/11/04 00:38:48;;;;;;;19.07;10.95;;;;;;;9.53;72.67;97946.14;1611510;89;25664;-63
2022/11/04 00:41:27;;;;;;;21.70;12.47;;;;;;;9.52;72.60;97945.32;1611507;88;25748;-63
2022/11/04 00:44:04;;;;;;;24.00;11.73;;;;;;;9.54;72.40;97947.73;1611550;89;26304;-63
2022/11/04 00:46:32;;;;;;;21.57;11.55;;;;;;;9.56;72.40;97943.30;1611759;89;25672;-63
2022/11/04 00:48:59;;;;;;;22.05;10.72;;;;;;;9.56;72.34;97941.38;1611712;89;27555;-63
2022/11/04 00:51:26;;;;;;;20.72;10.58;;;;;;;9.55;72.39;97935.66;1611856;89;25525;-63
2022/11/04 00:53:52;;;;;;;17.85;10.68;;;;;;;9.54;72.31;97937.61;1611714;88;25647;-63
2022/11/04 00:56:19;;;;;;;23.20;12.05;;;;;;;9.56;72.27;97937.84;1611797;89;26332;-63
2022/11/04 00:58:45;;;;;;;22.10;11.20;;;;;;;9.58;72.16;97934.22;1611580;89;25709;-63
2022/11/04 01:01:17;;;;;;;18.40;10.40;;;;;;;9.56;72.08;97919.50;1611830;89;28271;-63
2022/11/04 01:03:45;;;;;;;21.25;11.90;;;;;;;9.57;72.09;97923.83;1611404;89;26060;-63
2022/11/04 01:06:11;;;;;;;18.52;10.78;;;;;;;9.60;71.87;97919.64;1611677;89;25703;-63
2022/11/04 01:08:39;;;;;;;19.92;10.90;;;;;;;9.64;71.77;97926.05;1611397;89;25870;-63
2022/11/04 01:11:07;;;;;;;19.15;10.32;;;;;;;9.69;71.74;97914.14;1611765;89;25442;-63
2022/11/04 01:13:34;;;;;;;19.98;11.38;;;;;;;9.69;71.76;97910.84;1611689;89;27450;-63
2022/11/04 01:16:04;;;;;;;19.85;11.60;;;;;;;9.73;71.62;97909.05;1611540;89;25889;-63
2022/11/04 01:18:30;;;;;;;19.00;11.57;;;;;;;9.76;71.61;97911.72;1611806;89;25449;-63
2022/11/04 01:21:02;;;;;;;20.62;11.50;;;;;;;9.77;71.57;97902.38;1611731;88;25721;-63
2022/11/04 01:23:28;;;;;;;19.67;11.55;;;;;;;9.74;71.63;97896.19;1611784;89;25513;-63
2022/11/04 01:25:55;;;;;;;19.82;10.98;;;;;;;9.72;71.61;97897.06;1611502;89;28266;-63
2022/11/04 01:28:21;;;;;;;21.30;11.35;;;;;;;9.68;71.67;97892.02;1611687;88;25623;-63
2022/11/04 01:30:47;;;;;;;19.02;11.83;;;;;;;9.65;71.69;97885.28;1611408;89;25683;-63
2022/11/04 01:33:13;;;;;;;21.48;11.75;;;;;;;9.64;71.61;97880.92;1611730;89;25945;-63
2022/11/04 01:35:39;;;;;;;19.32;10.18;;;;;;;9.65;71.62;97886.06;1615452;87;25529;-63
2022/11/04 01:38:05;;;;;;;18.77;9.93;;;;;;;9.65;71.42;97881.17;1614661;88;27485;-63
2022/11/04 01:40:38;;;;;;;17.77;10.38;;;;;;;9.64;71.34;97886.39;1614080;88;25477;-63
2022/11/04 01:43:14;;;;;;;17.62;10.58;;;;;;;9.64;71.19;97883.09;1614484;88;25458;-63
2022/11/04 01:45:48;;;;;;;17.02;10.00;;;;;;;9.68;71.03;97873.69;1607912;87;26617;-63
2022/11/04 01:48:20;;;;;;;18.60;9.88;;;;;;;9.71;70.91;97872.22;1614501;88;25490;-63
2022/11/04 01:50:49;;;;;;;16.35;8.45;;;;;;;9.73;70.79;97869.97;1614131;88;28285;-63
2022/11/04 01:53:34;;;;;;;23.77;13.70;;;;;;;9.73;70.37;97868.60;1614312;88;25464;-63
2022/11/04 01:56:10;;;;;;;16.73;10.20;;;;;;;9.76;70.10;97864.63;1614481;88;25704;-63
2022/11/04 01:58:35;;;;;;;20.55;10.70;;;;;;;9.81;69.97;97865.59;1614606;86;25645;-64
2022/11/04 02:01:02;;;;;;;19.67;10.30;;;;;;;9.81;70.06;97867.75;1614134;88;25713;-63
2022/11/04 02:03:41;;;;;;;19.25;10.93;;;;;;;9.81;69.88;97858.17;1614046;88;27487;-64
2022/11/04 02:06:08;;;;;;;15.85;9.50;;;;;;;9.84;69.81;97853.41;1614141;88;25685;-64
2022/11/04 02:08:36;;;;;;;18.77;10.50;;;;;;;9.84;69.63;97849.30;1614467;88;25631;-63
2022/11/04 02:11:03;;;;;;;14.98;9.83;;;;;;;9.84;69.80;97849.30;1614415;88;25689;-64
2022/11/04 02:13:33;;;;;;;19.98;10.38;;;;;;;9.83;69.82;97849.08;1614491;88;25719;-64
2022/11/04 02:16:23;;;;;;;18.75;10.20;;;;;;;9.84;69.76;97843.83;1614171;87;27489;-64
2022/11/04 02:19:06;;;;;;;18.45;10.58;;;;;;;9.83;69.77;97836.77;1613960;88;25693;-64
2022/11/04 02:21:55;;;;;;;18.98;9.73;;;;;;;9.77;69.84;97836.16;1613205;88;25689;-63
2022/11/04 02:25:05;;;;;;;16.97;9.05;;;;;;;9.73;69.99;97830.30;1614094;88;26641;-63
2022/11/04 02:28:12;;;;;;;19.90;10.23;;;;;;;9.69;70.37;97828.77;1614173;88;25699;-63
2022/11/04 02:30:52;;;;;;;21.70;11.35;;;;;;;9.63;70.46;97825.42;1614132;88;27452;-63
2022/11/04 02:33:42;;;;;;;18.50;9.63;;;;;;;9.60;70.65;97824.70;1613986;88;25675;-63
2022/11/04 02:36:29;;;;;;;22.50;11.10;;;;;;;9.52;71.19;97813.22;1609990;87;25526;-63
2022/11/04 02:39:06;;;;;;;18.82;11.30;;;;;;;9.46;71.12;97812.61;1613976;88;26731;-63
2022/11/04 02:41:56;;;;;;;21.90;11.80;;;;;;;9.44;71.19;97801.77;1614077;88;25604;-63
2022/11/04 02:44:40;;;;;;;24.05;12.28;;;;;;;9.45;71.03;97806.09;1614363;88;28063;-63
2022/11/04 02:47:16;;;;;;;23.30;12.40;;;;;;;9.43;71.09;97797.41;1614849;86;25511;-63
2022/11/04 02:49:53;;;;;;;22.22;11.90;;;;;;;9.41;71.10;97805.94;1614347;88;25703;-63
2022/11/04 02:52:27;;;;;;;27.00;13.05;;;;;;;9.40;71.13;97798.87;1614499;87;25755;-63
2022/11/04 02:55:04;;;;;;;20.65;12.30;;;;;;;9.36;71.11;97810.23;1614430;88;25607;-63
2022/11/04 02:57:34;;;;;;;20.37;10.13;;;;;;;9.33;71.13;97810.89;1614108;88;27556;-63
2022/11/04 03:00:10;;;;;;;21.07;12.35;;;;;;;9.31;71.13;97803.56;1614098;88;25636;-63
2022/11/04 03:02:54;;;;;;;18.20;11.20;;;;;;;9.30;71.05;97806.88;1614455;88;25695;-63
2022/11/04 03:05:31;;;;;;;19.92;11.48;;;;;;;9.32;70.99;97806.56;1614293;88;25729;-64
2022/11/04 03:08:02;;;;;;;18.65;10.58;;;;;;;9.29;70.94;97813.46;1614122;88;25460;-63
2022/11/04 03:10:36;;;;;;;17.05;9.78;;;;;;;9.24;70.98;97804.87;1614464;88;28295;-63
2022/11/04 03:13:07;;;;;;;18.07;10.53;;;;;;;9.21;71.11;97805.52;1614428;88;25606;-63
2022/11/04 03:15:38;;;;;;;18.37;11.15;;;;;;;9.15;71.18;97798.61;1614308;88;25611;-63
2022/11/04 03:18:31;;;;;;;19.35;10.63;;;;;;;9.11;71.27;97795.75;1614201;88;25818;-63
2022/11/04 03:21:01;;;;;;;17.05;10.15;;;;;;;9.09;71.40;97801.28;1614385;88;25620;-63
2022/11/04 03:23:28;;;;;;;16.97;10.63;;;;;;;9.02;71.73;97795.78;1614209;88;27399;-63
2022/11/04 03:25:59;;;;;;;20.65;11.60;;;;;;;8.98;71.79;97791.28;1613966;88;25550;-63
2022/11/04 03:28:37;;;;;;;20.40;11.38;;;;;;;8.96;71.81;97791.61;1614496;87;25760;-63
2022/11/04 03:31:06;;;;;;;20.02;10.90;;;;;;;8.92;71.87;97792.00;1614005;87;25646;-63
2022/11/04 03:33:46;;;;;;;21.93;11.43;;;;;;;8.92;71.89;97779.70;1614208;88;25627;-63
2022/11/04 03:36:12;;;;;;;19.87;11.60;;;;;;;8.88;72.44;97771.36;1614195;87;27490;-63
2022/11/04 03:38:39;;;;;;;17.37;10.63;;;;;;;8.82;72.49;97765.02;1614302;88;25652;-63
2022/11/04 03:41:13;;;;;;;19.45;11.22;;;;;;;8.75;72.81;97769.05;1614100;88;25529;-63
2022/11/04 03:43:41;;;;;;;22.52;12.30;;;;;;;8.76;72.51;97773.95;1614313;88;25675;-63
2022/11/04 03:46:07;;;;;;;19.17;11.15;;;;;;;8.73;72.52;97774.05;1614392;88;25635;-63
2022/11/04 03:48:34;;;;;;;15.43;9.65;;;;;;;8.68;73.00;97764.64;1614042;88;27421;-63
2022/11/04 03:51:01;;;;;;;21.97;11.63;;;;;;;8.63;73.10;97762.06;1613993;88;25677;-63
2022/11/04 03:53:29;;;;;;;22.13;12.33;;;;;;;8.58;73.19;97760.87;1614040;88;25810;-63
2022/11/04 03:56:19;;;;;;;23.83;12.20;;;;;;;8.56;73.20;97763.94;1614416;88;25791;-63
2022/11/04 03:59:10;;;;;;;20.60;11.40;;;;;;;8.53;73.35;97770.01;1614019;87;25551;-63
2022/11/04 04:02:00;;;;;;;21.02;11.38;;;;;;;8.49;73.74;97760.86;1614421;88;27637;-62
2022/11/04 04:04:39;;;;;;;20.52;11.38;;;;;;;8.49;73.87;97760.28;1614894;87;25743;-63
2022/11/04 04:07:29;;;;;;;21.25;11.50;;;;;;;8.51;73.33;97756.67;1615445;86;25635;-63
2022/11/04 04:10:37;;;;;;;20.82;10.75;;;;;;;8.52;73.44;97752.81;1614082;88;27826;-62
2022/11/04 04:13:24;;;;;;;21.30;11.22;;;;;;;8.55;73.29;97747.87;1614110;88;25671;-62
2022/11/04 04:16:11;;;;;;;19.75;11.28;;;;;;;8.53;73.43;97742.12;1613990;88;27438;-62
2022/11/04 04:18:51;;;;;;;21.17;11.90;;;;;;;8.53;73.39;97748.95;1540076;93;25870;-63
2022/11/04 04:21:21;;;;;;;22.30;11.88;;;;;;;8.44;73.57;97742.71;1539916;93;25802;-63
2022/11/04 04:29:24;;;;;;;22.75;11.25;;;;;;;8.27;73.96;97740.20;1539924;93;25706;-62
2022/11/04 04:31:56;;;;;;;21.97;11.30;;;;;;;8.23;73.93;97741.98;1540069;93;25779;-63
2022/11/04 04:34:28;;;;;;;23.38;10.45;;;;;;;8.20;74.03;97735.02;1539885;91;25559;-63
2022/11/04 04:37:08;;;;;;;20.02;11.22;;;;;;;8.15;74.32;97721.74;1538848;93;25763;-63
2022/11/04 04:45:37;;;;;;;20.97;10.48;;;;;;;8.09;74.14;97716.20;1539824;93;25770;-62
2022/11/04 04:48:07;;;;;;;18.60;10.18;;;;;;;8.11;74.27;97719.97;1540125;93;25604;-62
2022/11/04 04:50:38;;;;;;;20.17;10.67;;;;;;;8.10;74.32;97712.92;1540449;93;26762;-61
2022/11/04 04:53:05;;;;;;;22.55;10.50;;;;;;;8.10;74.16;97709.64;1539962;93;25798;-62
2022/11/04 04:55:31;;;;;;;20.27;11.03;;;;;;;8.10;74.26;97712.38;1608277;88;28326;-62
2022/11/04 04:57:58;;;;;;;20.30;10.00;;;;;;;8.08;74.26;97709.15;1614253;88;25683;-62
2022/11/04 05:00:25;;;;;;;22.93;11.20;;;;;;;8.03;74.59;97699.74;1614244;88;25556;-62
2022/11/04 05:02:52;;;;;;;18.85;9.55;;;;;;;7.97;74.61;97695.59;1614117;88;25775;-62
2022/11/04 05:05:18;;;;;;;15.23;8.95;;;;;;;7.91;74.95;97692.20;1614089;88;25638;-62
2022/11/04 05:07:45;;;;;;;18.17;9.90;;;;;;;7.86;75.25;97689.65;1614658;88;27635;-61
2022/11/04 05:10:13;;;;;;;31.62;15.00;;;;;;;7.81;75.17;97683.78;1614155;88;25733;-62
2022/11/04 05:15:27;;;;;;;21.42;11.57;;;;;;;7.80;75.14;97692.28;1614316;88;25454;-61
2022/11/04 05:17:59;;;;;;;22.37;11.53;;;;;;;7.77;75.33;97692.34;1614364;88;25510;-62
2022/11/04 05:20:27;;;;;;;21.87;11.65;;;;;;;7.77;75.01;97686.34;1614452;88;27558;-61
2022/11/04 05:22:54;;;;;;;20.12;10.78;;;;;;;7.81;75.04;97687.06;1614325;88;25851;-61
2022/11/04 05:25:20;;;;;;;23.25;11.60;;;;;;;7.84;75.19;97683.15;1614471;88;25556;-61
2022/11/04 05:27:47;;;;;;;23.80;11.73;;;;;;;7.88;74.82;97689.56;1614103;88;25733;-62
2022/11/04 05:30:13;;;;;;;20.35;10.78;;;;;;;7.90;74.91;97688.69;1614084;88;25467;-61
2022/11/04 05:32:40;;;;;;;24.23;11.93;;;;;;;7.91;74.87;97686.75;1614125;88;45440;-62
2022/11/04 05:35:07;;;;;;;21.48;10.95;;;;;;;7.99;74.70;97690.05;1614052;88;25509;-62
2022/11/04 05:37:33;;;;;;;22.73;11.03;;;;;;;8.05;74.64;97685.23;1614186;87;25850;-62
2022/11/04 05:40:00;;;;;;;32.08;14.73;;;;;;;8.11;74.60;97682.59;1614073;88;27855;-62
2022/11/04 05:42:26;;;;;;;33.25;16.90;;;;;;;8.14;74.56;97684.67;1614126;88;25779;-62
2022/11/04 05:44:52;;;;;;;29.87;16.40;;;;;;;8.19;74.58;97680.16;1614091;88;26746;-62
2022/11/04 05:47:18;;;;;;;42.38;20.48;;;;;;;8.21;74.43;97686.92;1614323;88;25604;-62
2022/11/04 05:49:44;;;;;;;49.73;23.83;;;;;;;8.23;74.42;97686.61;1614488;88;25675;-62
2022/11/04 05:52:11;;;;;;;26.77;15.05;;;;;;;8.25;74.33;97691.97;1614061;88;27843;-62
2022/11/04 05:54:40;;;;;;;53.40;29.12;;;;;;;8.26;74.28;97691.42;1614092;88;25743;-62
2022/11/04 05:57:06;;;;;;;26.40;14.07;;;;;;;8.27;74.26;97696.53;1614111;88;26010;-62
2022/11/04 05:59:32;;;;;;;22.98;11.88;;;;;;;8.29;74.27;97693.48;1614021;88;26161;-62
2022/11/04 06:01:58;;;;;;;18.05;11.73;;;;;;;8.31;74.06;97702.71;1614402;88;25691;-62
2022/11/04 06:04:24;;;;;;;16.87;9.38;;;;;;;8.35;73.84;97699.02;1614072;88;25781;-62
2022/11/04 06:07:03;;;;;;;19.32;9.05;;;;;;;8.42;73.49;97704.00;1614073;88;25527;-62
2022/11/04 06:09:38;;;;;;;14.23;8.65;;;;;;;8.48;73.31;97699.98;1614288;88;27524;-62
2022/11/04 06:12:14;;;;;;;17.80;8.08;;;;;;;8.56;73.18;97709.88;1614042;88;25964;-62
2022/11/04 06:14:42;;;;;;;14.68;8.93;;;;;;;8.58;73.17;97700.22;1614355;88;25684;-62
2022/11/04 06:17:15;;;;;;;15.95;8.78;;;;;;;8.60;73.15;97703.44;1614167;88;25714;-62
2022/11/04 06:19:41;;;;;;;16.45;9.20;;;;;;;8.64;73.07;97705.75;1613858;87;25328;-62
2022/11/04 06:22:11;;;;;;;17.48;9.80;;;;;;;8.68;72.97;97710.56;1614324;88;27418;-62
2022/11/04 06:24:37;;;;;;;17.48;9.28;;;;;;;8.71;73.02;97710.73;1614377;87;25515;-62
2022/11/04 06:27:04;;;;;;;13.10;8.75;;;;;;;8.76;73.01;97711.94;1614153;88;25469;-62
2022/11/04 06:29:30;;;;;;;19.70;10.28;;;;;;;8.71;73.03;97713.46;1613989;88;25940;-62
2022/11/04 06:31:56;;;;;;;16.45;9.90;;;;;;;8.70;73.09;97714.59;1614441;88;25454;-62
2022/11/04 06:34:23;;;;;;;16.95;10.05;;;;;;;8.74;73.03;97716.09;1614064;88;27586;-62
2022/11/04 06:36:50;;;;;;;19.05;10.38;;;;;;;8.77;73.01;97721.72;1613976;87;25528;-62
2022/11/04 06:39:17;;;;;;;20.15;9.73;;;;;;;8.78;73.07;97719.22;1621091;88;25707;-62
2022/11/04 06:41:44;;;;;;;20.55;10.65;;;;;;;8.80;72.94;97719.48;1627217;88;25727;-62
2022/11/04 06:44:10;;;;;;;22.95;10.20;;;;;;;8.84;72.95;97721.21;1627069;87;25615;-62
2022/11/04 06:46:40;;;;;;;17.37;9.78;;;;;;;8.84;72.96;97721.80;1627129;88;27532;-63
2022/11/04 06:49:12;;;;;;;17.27;10.08;;;;;;;8.86;72.76;97725.80;1627347;88;25671;-62
2022/11/04 06:51:39;;;;;;;17.25;10.23;;;;;;;8.86;72.79;97718.97;1627533;86;25587;-62
2022/11/04 06:54:05;;;;;;;17.48;11.00;;;;;;;8.87;72.78;97719.20;1627310;86;25767;-63
2022/11/04 06:56:40;;;;;;;19.95;11.48;;;;;;;8.91;72.79;97716.07;1627154;86;25725;-63
2022/11/04 06:59:08;;;;;;;17.85;10.48;;;;;;;8.96;72.77;97723.84;1627087;88;27636;-63
2022/11/04 07:01:36;;;;;;;18.15;10.15;;;;;;;8.99;72.67;97715.00;1627136;88;27242;-63
2022/11/04 07:04:04;;;;;;;17.45;8.70;;;;;;;8.98;72.66;97717.50;1627042;88;25687;-63
2022/11/04 07:06:31;;;;;;;17.82;9.50;;;;;;;8.98;72.45;97711.45;1627068;88;25767;-63
2022/11/04 07:08:59;;;;;;;18.75;10.13;;;;;;;9.01;72.68;97710.02;1627086;88;25490;-63
2022/11/04 07:11:29;;;;;;;21.05;10.30;;;;;;;8.95;72.76;97714.05;1627320;88;27395;-63
2022/11/04 07:13:56;;;;;;;24.50;11.10;;;;;;;8.93;72.82;97709.47;1627415;86;25632;-63
2022/11/04 07:16:23;;;;;;;17.07;9.68;;;;;;;8.97;72.82;97707.13;1627080;88;25642;-63
2022/11/04 07:18:50;;;;;;;18.95;9.68;;;;;;;9.03;72.70;97703.64;1627358;88;25789;-63
2022/11/04 07:21:17;;;;;;;22.58;10.50;;;;;;;9.06;72.69;97696.16;1627387;88;25437;-63
2022/11/04 07:23:43;;;;;;;23.98;12.50;;;;;;;9.08;72.52;97693.09;1627061;88;27674;-63
2022/11/04 07:26:11;;;;;;;24.02;11.73;;;;;;;9.14;72.60;97699.98;1627275;86;25774;-63
2022/11/04 07:28:39;;;;;;;29.92;12.88;;;;;;;9.14;72.75;97688.50;1627486;88;25521;-63
2022/11/04 07:31:09;;;;;;;16.15;9.80;;;;;;;9.23;72.72;97691.74;1627512;87;25715;-63
2022/11/04 07:33:36;;;;;;;24.77;12.60;;;;;;;9.31;72.41;97691.47;1627077;88;25712;-63
2022/11/04 07:36:05;;;;;;;24.80;11.78;;;;;;;9.38;72.51;97698.03;1627310;88;27430;-63
2022/11/04 07:38:32;;;;;;;22.75;11.48;;;;;;;9.45;72.32;97696.16;1608952;86;25478;-63
2022/11/04 07:40:59;;;;;;;24.12;11.08;;;;;;;9.52;72.25;97694.25;1607318;89;25616;-63
2022/11/04 07:43:26;;;;;;;22.25;11.43;;;;;;;9.54;72.30;97695.55;1607247;89;25755;-63
2022/11/04 07:46:11;;;;;;;20.40;11.78;;;;;;;9.59;72.35;97693.74;1607184;89;25708;-63
2022/11/04 07:48:38;;;;;;;21.10;10.25;;;;;;;9.64;72.31;97692.97;1607046;89;27517;-63
2022/11/04 07:51:07;;;;;;;20.90;10.60;;;;;;;9.71;72.20;97695.20;1607239;89;26109;-63
2022/11/04 07:53:34;;;;;;;20.20;10.28;;;;;;;9.77;72.26;97693.06;1607314;89;25700;-63
2022/11/04 07:56:04;;;;;;;17.82;9.95;;;;;;;9.83;72.20;97686.81;1607405;88;25700;-64
2022/11/04 07:58:31;;;;;;;20.43;11.95;;;;;;;9.88;72.15;97690.73;1607335;89;25517;-63
2022/11/04 08:01:04;;;;;;;22.07;11.12;;;;;;;9.95;72.10;97688.82;1607339;89;27532;-63
2022/11/04 08:03:31;;;;;;;22.98;11.28;;;;;;;10.04;71.93;97690.38;1607174;89;25853;-63
2022/11/04 08:05:59;;;;;;;25.60;11.90;;;;;;;10.14;71.82;97678.78;1607127;89;25546;-63
2022/11/04 08:08:27;;;;;;;34.70;15.90;;;;;;;10.27;71.68;97679.62;1607162;89;25859;-63
2022/11/04 08:10:59;;;;;;;35.23;15.03;;;;;;;10.40;71.64;97673.05;1607334;89;25484;-63
2022/11/04 08:13:30;;;;;;;42.83;18.80;;;;;;;10.53;71.57;97671.20;1607270;89;27474;-63
2022/11/04 08:16:03;;;;;;;33.00;12.35;;;;;;;10.69;71.34;97675.23;1607249;89;25464;-63
2022/11/04 08:18:32;;;;;;;22.93;11.30;;;;;;;10.78;71.24;97669.91;1607358;88;25279;-63
2022/11/04 08:21:01;;;;;;;21.90;10.55;;;;;;;10.86;70.95;97668.20;1607131;89;26698;-63
2022/11/04 08:23:28;;;;;;;33.78;11.95;;;;;;;10.90;70.82;97669.11;1607066;89;25677;-63
2022/11/04 08:25:55;;;;;;;24.52;11.55;;;;;;;10.90;70.74;97663.63;1607257;89;27388;-63
2022/11/04 08:28:23;;;;;;;23.42;10.63;;;;;;;10.89;70.48;97659.86;1607258;89;25515;-63
2022/11/04 08:31:08;;;;;;;20.27;10.93;;;;;;;10.87;70.44;97659.39;1607024;89;25661;-64
2022/11/04 08:33:35;;;;;;;18.77;8.63;;;;;;;10.85;70.34;97652.87;1607057;89;25753;-63
2022/11/04 08:36:16;;;;;;;21.48;11.70;;;;;;;10.84;69.97;97647.73;1607120;88;25431;-63
2022/11/04 08:38:42;;;;;;;21.15;10.18;;;;;;;10.84;70.61;97638.95;1634332;87;27339;-63
2022/11/04 08:41:11;;;;;;;23.15;11.57;;;;;;;10.84;70.25;97651.84;1641120;87;25657;-63
2022/11/04 08:43:38;;;;;;;21.10;11.38;;;;;;;10.85;70.01;97636.44;1641560;87;25469;-63
2022/11/04 08:46:07;;;;;;;24.02;12.13;;;;;;;10.90;70.17;97643.08;1632580;87;25642;-64
2022/11/04 08:48:37;;;;;;;24.45;13.45;;;;;;;10.96;70.16;97638.73;1632533;87;25642;-63
2022/11/04 08:51:06;;;;;;;25.82;14.47;;;;;;;10.98;70.22;97635.89;1632433;87;27551;-64
2022/11/04 08:53:33;;;;;;;26.70;12.65;;;;;;;11.09;70.32;97636.80;1632586;87;25682;-64
2022/11/04 08:55:59;;;;;;;37.98;16.93;;;;;;;11.16;70.06;97635.66;1632135;87;25481;-64
2022/11/04 08:58:26;;;;;;;34.85;15.53;;;;;;;11.22;70.29;97634.28;1632644;87;25976;-64
2022/11/04 09:00:52;;;;;;;18.25;11.22;;;;;;;11.27;70.26;97631.88;1632478;87;25678;-64
2022/11/04 09:03:20;;;;;;;19.73;11.48;;;;;;;11.32;69.84;97627.55;1632406;87;27471;-64
2022/11/04 09:06:07;;;;;;;87.88;26.50;;;;;;;11.38;69.83;97633.03;1632219;87;25683;-65
2022/11/04 09:08:45;;;;;;;24.72;12.20;;;;;;;11.46;69.96;97631.88;1632445;87;25485;-64
2022/11/04 09:11:11;;;;;;;19.05;10.72;;;;;;;11.48;69.38;97626.82;1630172;87;25537;-64
2022/11/04 09:13:38;;;;;;;21.17;11.43;;;;;;;11.53;69.04;97624.66;1632655;87;25473;-64
2022/11/04 09:16:07;;;;;;;21.90;12.33;;;;;;;11.54;68.85;97615.84;1632751;87;27492;-64
2022/11/04 09:18:33;;;;;;;21.33;11.88;;;;;;;11.57;69.06;97623.37;1632195;87;25438;-64
2022/11/04 09:21:03;;;;;;;20.85;11.33;;;;;;;11.62;69.11;97618.23;1631325;87;25892;-64
2022/11/04 09:23:30;;;;;;;30.65;14.33;;;;;;;11.66;68.77;97614.45;1631026;87;25590;-64
2022/11/04 09:26:00;;;;;;;21.27;11.65;;;;;;;11.77;69.03;97612.58;1632246;87;25711;-64
2022/11/04 09:28:27;;;;;;;25.40;12.85;;;;;;;11.87;68.46;97612.68;1632276;87;28391;-64
2022/11/04 09:30:53;;;;;;;25.68;11.88;;;;;;;12.00;68.55;97616.20;1632332;87;25818;-64
2022/11/04 09:33:20;;;;;;;26.15;12.65;;;;;;;12.13;68.25;97616.96;1632284;87;25489;-64
2022/11/04 09:35:56;;;;;;;31.02;15.05;;;;;;;12.28;67.82;97612.66;1632408;87;25891;-64
2022/11/04 09:38:24;;;;;;;30.85;14.85;;;;;;;12.41;67.74;97600.45;1633431;87;25621;-64
2022/11/04 09:40:52;;;;;;;44.95;19.40;;;;;;;12.57;67.89;97603.80;1633765;87;27323;-65
2022/11/04 09:43:36;;;;;;;26.37;13.75;;;;;;;12.77;67.54;97605.27;1631802;87;25470;-65
2022/11/04 09:46:03;;;;;;;23.62;12.20;;;;;;;12.91;66.88;97599.33;1607530;87;25527;-64
2022/11/04 09:48:49;;;;;;;24.85;12.05;;;;;;;13.11;66.79;97602.95;1607403;89;25863;-64
2022/11/04 09:51:22;;;;;;;20.08;11.38;;;;;;;13.23;66.04;97607.55;1607255;89;25671;-63
2022/11/04 09:53:57;;;;;;;23.12;10.85;;;;;;;13.32;65.92;97607.34;1607262;89;27631;-64
2022/11/04 09:56:31;;;;;;;22.27;11.25;;;;;;;13.35;65.43;97601.13;1607306;89;25657;-64
2022/11/04 09:58:58;;;;;;;22.07;11.38;;;;;;;13.48;65.70;97599.64;1607095;88;25444;-64
2022/11/04 10:01:52;;;;;;;22.52;12.93;;;;;;;13.60;65.92;97599.55;1607240;89;25739;-64
2022/11/04 10:04:30;;;;;;;18.52;10.85;;;;;;;13.60;65.92;97599.55;1607087;89;25607;-63
2022/11/04 10:07:22;;;;;;;17.75;10.55;;;;;;;13.67;65.28;97596.94;1607538;89;27829;-63
2022/11/04 10:10:16;;;;;;;22.67;12.50;;;;;;;13.65;64.84;97595.11;1606998;89;27222;-64
2022/11/04 10:13:00;;;;;;;133.50;54.42;;;;;;;13.66;65.37;97595.35;1607148;88;25531;-63
2022/11/04 10:15:51;;;;;;;118.10;47.30;;;;;;;13.72;65.53;97588.97;1607303;87;25440;-63
2022/11/04 10:18:31;;;;;;;48.92;22.50;;;;;;;13.82;65.83;97586.24;1607085;88;25431;-63
2022/11/04 10:21:12;;;;;;;113.65;42.88;;;;;;;13.92;65.22;97583.47;1607208;88;27447;-63
2022/11/04 10:24:05;;;;;;;43.33;21.85;;;;;;;13.96;65.22;97589.06;1608382;86;25673;-63
2022/11/04 10:26:37;;;;;;;66.12;27.37;;;;;;;13.97;65.48;97583.76;1607163;89;25465;-63
2022/11/04 10:29:27;;;;;;;53.13;22.80;;;;;;;14.06;65.45;97588.47;1606154;87;25709;-63
2022/11/04 10:31:56;;;;;;;36.58;16.75;;;;;;;14.19;65.34;97586.34;1607493;89;25686;-64
2022/11/04 10:34:43;;;;;;;26.65;13.25;;;;;;;14.32;65.24;97583.42;1607337;89;27671;-64
2022/11/04 10:37:12;;;;;;;18.05;11.15;;;;;;;14.43;65.14;97570.66;1605572;89;25712;-64
2022/11/04 10:39:46;;;;;;;19.67;10.82;;;;;;;14.43;65.14;97570.66;1615452;87;25785;-64
2022/11/04 10:42:21;;;;;;;22.93;11.88;;;;;;;14.52;65.38;97576.72;1616042;88;25909;-64
2022/11/04 10:44:49;;;;;;;25.20;12.58;;;;;;;14.58;65.06;97581.34;1616165;88;25527;-64
2022/11/04 10:47:23;;;;;;;21.57;12.50;;;;;;;14.67;64.96;97579.14;1616171;88;28341;-64
2022/11/04 10:50:02;;;;;;;18.30;11.18;;;;;;;14.73;65.09;97580.20;1616553;88;25459;-64
2022/11/04 10:52:36;;;;;;;104.85;51.48;;;;;;;14.79;65.20;97578.17;1616444;88;25679;-64
2022/11/04 10:55:10;;;;;;;97.65;49.65;;;;;;;14.77;64.99;97570.04;1615997;88;25782;-64
2022/11/04 10:57:38;;;;;;;23.80;13.65;;;;;;;14.89;65.03;97576.77;1612023;87;25651;-64
2022/11/04 11:00:07;;;;;;;20.10;10.85;;;;;;;14.93;64.65;97574.86;1616415;88;27377;-64
2022/11/04 11:02:46;;;;;;;17.92;11.43;;;;;;;15.03;65.36;97569.28;1616238;88;25769;-64
2022/11/04 11:05:23;;;;;;;23.98;12.65;;;;;;;15.03;65.36;97569.28;1616338;88;25624;-64
2022/11/04 11:07:57;;;;;;;25.15;13.10;;;;;;;15.04;64.77;97567.33;1615995;87;25799;-65
2022/11/04 11:10:32;;;;;;;26.17;13.45;;;;;;;15.03;64.46;97562.39;1616258;88;25592;-65
2022/11/04 11:13:06;;;;;;;21.20;12.95;;;;;;;14.98;64.65;97549.50;1608553;87;28191;-64
2022/11/04 11:15:36;;;;;;;21.25;12.95;;;;;;;15.09;64.36;97567.02;1616421;88;25497;-64
2022/11/04 11:18:21;;;;;;;24.30;14.15;;;;;;;15.16;64.32;97558.04;1616442;88;25631;-64
2022/11/04 11:21:10;;;;;;;23.57;13.62;;;;;;;15.18;64.32;97561.23;1616211;86;25696;-64
2022/11/04 11:23:46;;;;;;;24.18;14.50;;;;;;;15.17;62.54;97554.13;1616262;88;25751;-64
2022/11/04 11:26:17;;;;;;;26.87;16.65;;;;;;;15.10;63.60;97559.52;1616282;88;27462;-64
2022/11/04 11:29:01;;;;;;;24.12;15.23;;;;;;;15.13;63.21;97554.07;1614898;87;25508;-64
2022/11/04 11:31:25;;;;;;;18.92;13.65;;;;;;;15.11;62.94;97551.48;1616390;87;25540;-64
2022/11/04 11:33:56;;;;;;;19.67;12.88;;;;;;;15.13;62.95;97547.74;1616055;88;25920;-64
2022/11/04 11:36:30;;;;;;;25.60;12.75;;;;;;;15.18;63.48;97548.24;1616377;88;25644;-64
2022/11/04 11:39:15;;;;;;;16.55;11.18;;;;;;;15.34;63.49;97542.34;1611565;87;27464;-64
2022/11/04 11:41:55;;;;;;;18.75;11.22;;;;;;;15.43;62.40;97538.11;1607156;89;25438;-64
2022/11/04 11:44:43;;;;;;;;;;;;;;;15.44;62.97;97534.78;1609734;89;25728;-64
2022/11/04 11:47:30;;;;;;;20.23;10.75;;;;;;;15.47;61.51;97534.03;1607214;88;25819;-64
2022/11/04 11:50:19;;;;;;;24.87;12.35;;;;;;;15.35;61.76;97533.68;1607429;89;25495;-64
2022/11/04 11:52:48;;;;;;;22.90;12.37;;;;;;;15.39;62.58;97533.71;1607492;87;28475;-64
2022/11/04 11:55:25;;;;;;;17.95;11.48;;;;;;;15.45;62.64;97530.84;1607262;88;25632;-64
2022/11/04 11:58:12;;;;;;;23.10;13.30;;;;;;;15.45;62.06;97526.70;1607347;89;25163;-64
2022/11/04 12:00:44;;;;;;;17.35;12.07;;;;;;;15.49;62.62;97524.77;1607186;89;26080;-64
2022/11/04 12:03:39;;;;;;;16.40;10.63;;;;;;;15.52;62.43;97521.26;1605791;88;25655;-64
2022/11/04 12:06:51;;;;;;;18.17;11.40;;;;;;;15.59;62.31;97522.52;1606818;89;27912;-64
2022/11/04 12:09:32;;;;;;;17.50;10.60;;;;;;;15.61;62.37;97525.72;1607495;89;25697;-64
2022/11/04 12:12:23;;;;;;;17.87;9.95;;;;;;;15.59;62.15;97526.66;1607365;89;25547;-64
2022/11/04 12:15:17;;;;;;;21.95;11.08;;;;;;;15.59;62.13;97534.95;1606968;89;25767;-64
2022/11/04 12:18:03;;;;;;;19.85;11.38;;;;;;;15.53;62.45;97530.34;1606272;89;26110;-64
2022/11/04 12:21:09;;;;;;;21.25;12.63;;;;;;;15.49;62.47;97529.52;1606571;89;28301;-64
2022/11/04 12:23:53;;;;;;;23.32;13.18;;;;;;;15.47;62.66;97529.08;1606836;89;25499;-64